createdAt,value
2019-01-17T00:01:53.911Z,5.40
2019-01-17T00:04:24.085Z,5.40
2019-01-17T00:07:11.051Z,5.40
2019-01-17T00:09:41.428Z,5.40
2019-01-17T00:12:14.782Z,5.40
2019-01-17T00:14:51.327Z,5.30
2019-01-17T00:17:37.403Z,5.30
2019-01-17T00:20:11.078Z,5.30
2019-01-17T00:22:50.336Z,5.30
2019-01-17T00:25:20.525Z,5.30
2019-01-17T00:27:59.645Z,5.30
2019-01-17T00:30:32.747Z,5.30
2019-01-17T00:33:11.904Z,5.20
2019-01-17T00:35:44.800Z,5.20
2019-01-17T00:38:30.137Z,5.20
2019-01-17T00:41:03.194Z,5.20
2019-01-17T00:43:33.382Z,5.10
2019-01-17T00:46:06.086Z,5.10
2019-01-17T00:48:45.083Z,5.10
2019-01-17T00:51:18.213Z,5.10
2019-01-17T00:53:57.209Z,5.10
2019-01-17T00:56:29.786Z,5.10
2019-01-17T00:59:02.716Z,5.10
2019-01-17T01:01:39.056Z,5.10
2019-01-17T01:04:09.334Z,5.10
2019-01-17T01:06:45.515Z,5.10
2019-01-17T01:09:31.732Z,5.10
2019-01-17T01:12:07.641Z,5.10
2019-01-17T01:14:43.534Z,5.10
2019-01-17T01:17:16.449Z,5.10
2019-01-17T01:19:55.343Z,5.10
2019-01-17T01:22:41.657Z,5.10
2019-01-17T01:25:20.697Z,5.10
2019-01-17T01:27:53.487Z,5.10
2019-01-17T01:30:39.685Z,5.10
2019-01-17T01:33:25.923Z,5.10
2019-01-17T01:36:12.430Z,5.10
2019-01-17T01:38:48.587Z,5.10
2019-01-17T01:41:21.686Z,5.10
2019-01-17T01:44:00.591Z,5.10
2019-01-17T01:46:30.773Z,5.10
2019-01-17T01:49:00.966Z,5.10
2019-01-17T01:51:31.141Z,5.10
2019-01-17T01:53:59.709Z,5.00
2019-01-17T01:56:28.250Z,5.00
2019-01-17T01:58:56.877Z,5.00
2019-01-17T02:01:25.482Z,5.00
2019-01-17T02:03:54.041Z,5.00
2019-01-17T02:06:22.583Z,5.00
2019-01-17T02:08:51.145Z,5.00
2019-01-17T02:11:19.681Z,5.00
2019-01-17T02:13:49.482Z,5.00
2019-01-17T02:16:18.021Z,5.00
2019-01-17T02:18:46.576Z,4.90
2019-01-17T02:21:15.041Z,4.90
2019-01-17T02:23:43.616Z,4.90
2019-01-17T02:26:12.159Z,4.90
2019-01-17T02:28:40.728Z,4.90
2019-01-17T02:31:09.332Z,4.90
2019-01-17T02:33:37.895Z,4.90
2019-01-17T02:36:06.435Z,4.90
2019-01-17T02:38:35.006Z,4.90
2019-01-17T02:41:03.546Z,4.90
2019-01-17T02:43:32.078Z,4.90
2019-01-17T02:46:00.647Z,4.90
2019-01-17T02:48:29.181Z,4.90
2019-01-17T02:50:57.743Z,4.90
2019-01-17T02:53:26.277Z,4.90
2019-01-17T02:55:54.910Z,4.90
2019-01-17T02:58:23.453Z,4.90
2019-01-17T03:00:52.017Z,4.90
2019-01-17T03:03:20.555Z,4.90
2019-01-17T03:05:49.111Z,4.90
2019-01-17T03:08:17.719Z,4.80
2019-01-17T03:10:46.393Z,4.80
2019-01-17T03:13:14.893Z,4.80
2019-01-17T03:15:43.454Z,4.90
2019-01-17T03:18:12.071Z,4.80
2019-01-17T03:20:40.634Z,4.80
2019-01-17T03:23:09.247Z,4.80
2019-01-17T03:25:37.802Z,4.70
2019-01-17T03:28:06.411Z,4.70
2019-01-17T03:30:34.973Z,4.70
2019-01-17T03:33:03.514Z,4.60
2019-01-17T03:35:32.134Z,4.70
2019-01-17T03:38:00.742Z,4.60
2019-01-17T03:40:29.374Z,4.60
2019-01-17T03:42:57.914Z,4.60
2019-01-17T03:45:26.401Z,4.60
2019-01-17T03:47:54.955Z,4.60
2019-01-17T03:50:23.519Z,4.50
2019-01-17T03:52:52.058Z,4.50
2019-01-17T03:55:21.089Z,4.50
2019-01-17T03:57:49.847Z,4.50
2019-01-17T04:00:19.749Z,4.50
2019-01-17T04:02:48.457Z,4.50
2019-01-17T04:05:17.150Z,4.40
2019-01-17T04:07:45.700Z,4.40
2019-01-17T04:10:15.784Z,4.50
2019-01-17T04:12:44.326Z,4.50
2019-01-17T04:15:13.695Z,4.40
2019-01-17T04:17:42.365Z,4.40
2019-01-17T04:20:13.598Z,4.40
2019-01-17T04:22:42.276Z,4.50
2019-01-17T04:25:11.083Z,4.50
2019-01-17T04:27:39.617Z,4.50
2019-01-17T04:30:15.862Z,4.50
2019-01-17T04:32:44.452Z,4.50
2019-01-17T04:35:13.382Z,4.50
2019-01-17T04:37:42.061Z,4.40
2019-01-17T04:40:12.666Z,4.50
2019-01-17T04:42:41.373Z,4.40
2019-01-17T04:45:12.062Z,4.40
2019-01-17T04:47:40.669Z,4.40
2019-01-17T04:50:11.672Z,4.40
2019-01-17T04:52:40.270Z,4.40
2019-01-17T04:55:10.141Z,4.50
2019-01-17T04:57:38.778Z,4.40
2019-01-17T05:00:13.392Z,4.40
2019-01-17T05:02:41.933Z,4.40
2019-01-17T05:05:10.595Z,4.50
2019-01-17T05:07:39.358Z,4.40
2019-01-17T05:10:10.625Z,4.40
2019-01-17T05:12:39.113Z,4.50
2019-01-17T05:15:09.082Z,4.40
2019-01-17T05:17:37.799Z,4.40
2019-01-17T05:20:09.412Z,4.40
2019-01-17T05:22:37.992Z,4.40
2019-01-17T05:25:12.500Z,4.50
2019-01-17T05:27:38.751Z,4.50
2019-01-17T05:30:10.369Z,4.50
2019-01-17T05:32:39.014Z,4.50
2019-01-17T05:35:07.698Z,4.50
2019-01-17T05:37:36.263Z,4.50
2019-01-17T05:40:10.814Z,4.50
2019-01-17T05:42:39.303Z,4.50
2019-01-17T05:45:08.379Z,4.50
2019-01-17T05:47:36.943Z,4.50
2019-01-17T05:50:08.893Z,4.50
2019-01-17T05:52:37.448Z,4.50
2019-01-17T05:55:07.430Z,4.50
2019-01-17T05:57:35.987Z,4.50
2019-01-17T06:00:12.924Z,4.50
2019-01-17T06:02:41.481Z,4.50
2019-01-17T06:05:10.262Z,4.50
2019-01-17T06:07:38.823Z,4.60
2019-01-17T06:10:09.996Z,4.60
2019-01-17T06:12:38.867Z,4.60
2019-01-17T06:15:10.437Z,4.60
2019-01-17T06:17:39.325Z,4.60
2019-01-17T06:20:13.331Z,4.60
2019-01-17T06:22:42.106Z,4.60
2019-01-17T06:25:10.753Z,4.60
2019-01-17T06:27:39.315Z,4.60
2019-01-17T06:30:11.162Z,4.60
2019-01-17T06:32:40.498Z,4.60
2019-01-17T06:35:09.985Z,4.60
2019-01-17T06:37:38.677Z,4.60
2019-01-17T06:40:13.009Z,4.60
2019-01-17T06:42:41.568Z,4.60
2019-01-17T06:45:10.179Z,4.60
2019-01-17T06:47:38.801Z,4.60
2019-01-17T06:50:09.966Z,4.60
2019-01-17T06:52:38.454Z,4.60
2019-01-17T06:55:08.571Z,4.60
2019-01-17T06:57:37.168Z,4.60
2019-01-17T07:00:11.762Z,4.60
2019-01-17T07:02:40.382Z,4.50
2019-01-17T07:05:09.774Z,4.50
2019-01-17T07:07:38.329Z,4.50
2019-01-17T07:10:09.869Z,4.40
2019-01-17T07:12:38.444Z,4.40
2019-01-17T07:15:09.021Z,4.30
2019-01-17T07:17:37.579Z,4.30
2019-01-17T07:20:11.666Z,4.30
2019-01-17T07:22:40.237Z,4.20
2019-01-17T07:25:10.115Z,4.20
2019-01-17T07:27:38.682Z,4.20
2019-01-17T07:30:13.251Z,4.20
2019-01-17T07:32:41.817Z,4.30
2019-01-17T07:35:10.595Z,4.20
2019-01-17T07:37:39.163Z,4.20
2019-01-17T07:40:09.524Z,4.20
2019-01-17T07:42:38.083Z,4.20
2019-01-17T07:45:09.712Z,4.20
2019-01-17T07:47:38.241Z,4.20
2019-01-17T07:50:09.366Z,4.20
2019-01-17T07:52:37.906Z,4.10
2019-01-17T07:55:08.605Z,4.20
2019-01-17T07:57:37.189Z,4.20
2019-01-17T08:00:11.853Z,4.10
2019-01-17T08:02:40.392Z,4.10
2019-01-17T08:05:09.090Z,4.20
2019-01-17T08:07:37.694Z,4.20
2019-01-17T08:10:09.661Z,4.10
2019-01-17T08:12:38.199Z,4.10
2019-01-17T08:15:09.106Z,4.10
2019-01-17T08:17:37.644Z,4.20
2019-01-17T08:20:09.283Z,4.20
2019-01-17T08:22:37.834Z,4.20
2019-01-17T08:25:09.433Z,4.20
2019-01-17T08:27:37.953Z,4.30
2019-01-17T08:30:09.514Z,4.30
2019-01-17T08:32:38.057Z,4.30
2019-01-17T08:35:07.055Z,4.40
2019-01-17T08:37:35.586Z,4.40
2019-01-17T08:40:07.149Z,4.40
2019-01-17T08:42:35.690Z,4.40
2019-01-17T08:45:06.386Z,4.50
2019-01-17T08:47:34.918Z,4.50
2019-01-17T08:50:05.782Z,4.50
2019-01-17T08:52:34.246Z,4.60
2019-01-17T08:55:02.800Z,4.60
2019-01-17T08:57:31.364Z,4.60
2019-01-17T09:00:00.402Z,4.60
2019-01-17T09:02:28.956Z,4.70
2019-01-17T09:04:57.515Z,4.70
2019-01-17T09:07:26.053Z,4.70
2019-01-17T09:09:54.662Z,4.80
2019-01-17T09:12:23.159Z,4.80
2019-01-17T09:14:51.719Z,4.80
2019-01-17T09:17:20.268Z,4.90
2019-01-17T09:19:48.825Z,4.90
2019-01-17T09:22:17.363Z,4.90
2019-01-17T09:24:45.939Z,4.90
2019-01-17T09:27:14.479Z,5.00
2019-01-17T09:29:43.038Z,5.00
2019-01-17T09:32:11.585Z,5.00
2019-01-17T09:34:40.151Z,5.10
2019-01-17T09:37:08.831Z,5.10
2019-01-17T09:39:37.402Z,5.10
2019-01-17T09:42:05.941Z,5.10
2019-01-17T09:44:34.502Z,5.10
2019-01-17T09:47:03.028Z,5.10
2019-01-17T09:49:31.530Z,5.10
2019-01-17T09:52:00.066Z,5.10
2019-01-17T09:54:28.629Z,5.20
2019-01-17T09:56:57.179Z,5.20
2019-01-17T09:59:25.718Z,5.20
2019-01-17T10:01:54.281Z,5.30
2019-01-17T10:04:26.548Z,5.30
2019-01-17T10:06:52.955Z,5.30
2019-01-17T10:09:21.494Z,5.40
2019-01-17T10:11:50.058Z,5.40
2019-01-17T10:14:18.602Z,5.40
2019-01-17T10:16:49.946Z,5.50
2019-01-17T10:19:38.141Z,5.50
2019-01-17T10:22:18.641Z,5.50
2019-01-17T10:25:06.552Z,5.50
2019-01-17T10:27:52.819Z,5.40
2019-01-17T10:30:48.481Z,5.40
2019-01-17T10:33:28.417Z,5.50
2019-01-17T10:36:02.503Z,5.50
2019-01-17T10:38:51.974Z,5.50
2019-01-17T10:41:39.700Z,5.50
2019-01-17T10:44:14.133Z,5.60
2019-01-17T10:46:48.438Z,5.60
2019-01-17T10:49:40.786Z,5.70
2019-01-17T10:52:21.090Z,5.70
2019-01-17T10:54:52.705Z,5.80
2019-01-17T10:57:30.034Z,5.80
2019-01-17T11:00:16.794Z,5.80
2019-01-17T11:02:51.129Z,5.80
2019-01-17T11:05:28.870Z,5.80
2019-01-17T11:08:00.481Z,5.80
2019-01-17T11:11:06.699Z,5.80
2019-01-17T11:13:44.170Z,5.80
2019-01-17T11:16:39.590Z,5.80
2019-01-17T11:19:33.451Z,5.80
2019-01-17T11:22:13.792Z,5.80
2019-01-17T11:24:54.290Z,5.80
2019-01-17T11:27:31.598Z,5.90
2019-01-17T11:30:05.822Z,5.90
2019-01-17T11:32:43.254Z,5.90
2019-01-17T11:35:17.582Z,5.90
2019-01-17T11:37:55.167Z,5.90
2019-01-17T11:40:44.654Z,5.90
2019-01-17T11:43:35.798Z,5.90
2019-01-17T11:46:13.075Z,5.90
2019-01-17T11:48:53.254Z,5.80
2019-01-17T11:51:30.449Z,5.80
2019-01-17T11:54:16.678Z,5.80
2019-01-17T11:56:48.241Z,5.80
2019-01-17T11:59:25.497Z,5.70
2019-01-17T12:02:13.343Z,5.70
2019-01-17T12:04:40.801Z,5.60
2019-01-17T12:07:12.303Z,5.60
2019-01-17T12:09:40.843Z,5.60
2019-01-17T12:12:11.270Z,5.60
2019-01-17T12:14:39.804Z,5.50
2019-01-17T12:17:08.439Z,5.50
2019-01-17T12:19:36.974Z,5.40
2019-01-17T12:22:05.607Z,5.40
2019-01-17T12:24:34.315Z,5.40
2019-01-17T12:27:03.449Z,5.30
2019-01-17T12:29:32.555Z,5.30
2019-01-17T12:32:01.186Z,5.20
2019-01-17T12:34:29.718Z,5.10
2019-01-17T12:36:58.245Z,5.10
2019-01-17T12:39:27.274Z,5.00
2019-01-17T12:41:55.765Z,4.90
2019-01-17T12:44:24.462Z,4.70
2019-01-17T12:46:53.064Z,4.60
2019-01-17T12:49:21.693Z,4.50
2019-01-17T12:51:52.166Z,4.40
2019-01-17T12:54:20.444Z,4.30
2019-01-17T12:56:53.978Z,4.30
2019-01-17T12:59:19.181Z,4.30
2019-01-17T13:01:47.717Z,4.30
2019-01-17T13:04:16.211Z,4.20
2019-01-17T13:06:44.746Z,4.20
2019-01-17T13:09:13.311Z,4.20
2019-01-17T13:11:41.850Z,4.20
2019-01-17T13:14:10.338Z,4.20
2019-01-17T13:16:38.873Z,4.20
2019-01-17T13:19:07.506Z,4.20
2019-01-17T13:21:36.042Z,4.20
2019-01-17T13:24:04.846Z,4.20
2019-01-17T13:26:33.391Z,4.20
2019-01-17T13:29:01.952Z,4.20
2019-01-17T13:31:30.490Z,4.20
2019-01-17T13:33:59.041Z,4.20
2019-01-17T13:36:27.582Z,4.20
2019-01-17T13:38:56.147Z,4.20
2019-01-17T13:41:24.681Z,4.20
2019-01-17T13:43:53.237Z,4.20
2019-01-17T13:46:21.773Z,4.20
2019-01-17T13:48:50.342Z,4.10
2019-01-17T13:51:18.865Z,4.10
2019-01-17T13:53:47.349Z,4.10
2019-01-17T13:56:15.883Z,4.10
2019-01-17T13:58:44.451Z,4.10
2019-01-17T14:01:12.991Z,4.10
2019-01-17T14:03:41.630Z,4.10
2019-01-17T14:06:10.179Z,4.10
2019-01-17T14:08:38.743Z,4.10
2019-01-17T14:11:07.273Z,4.10
2019-01-17T14:13:35.810Z,4.10
2019-01-17T14:16:04.613Z,4.10
2019-01-17T14:18:33.156Z,4.20
2019-01-17T14:21:01.709Z,4.10
2019-01-17T14:23:30.251Z,4.10
2019-01-17T14:25:58.805Z,4.10
2019-01-17T14:28:27.345Z,4.10
2019-01-17T14:30:55.906Z,4.10
2019-01-17T14:33:24.437Z,4.10
2019-01-17T14:35:52.993Z,4.10
2019-01-17T14:38:21.692Z,4.10
2019-01-17T14:40:50.337Z,4.10
2019-01-17T14:43:18.873Z,4.00
2019-01-17T14:45:47.482Z,4.00
2019-01-17T14:48:16.017Z,4.00
2019-01-17T14:50:44.636Z,4.00
2019-01-17T14:53:13.118Z,3.90
2019-01-17T14:55:41.677Z,3.90
2019-01-17T14:58:10.209Z,3.80
2019-01-17T15:00:38.727Z,3.80
2019-01-17T15:03:07.331Z,3.70
2019-01-17T15:05:35.887Z,3.70
2019-01-17T15:08:04.561Z,3.70
2019-01-17T15:10:39.738Z,3.60
2019-01-17T15:13:08.272Z,3.60
2019-01-17T15:15:36.970Z,3.60
2019-01-17T15:18:06.043Z,3.60
2019-01-17T15:20:34.601Z,3.50
2019-01-17T15:23:03.332Z,3.50
2019-01-17T15:25:31.894Z,3.50
2019-01-17T15:28:00.371Z,3.50
2019-01-17T15:30:28.925Z,3.50
2019-01-17T15:32:57.466Z,3.50
2019-01-17T15:35:26.021Z,3.50
2019-01-17T15:37:54.565Z,3.50
2019-01-17T15:40:25.285Z,3.40
2019-01-17T15:42:53.793Z,3.40
2019-01-17T15:45:22.426Z,3.40
2019-01-17T15:47:50.968Z,3.40
2019-01-17T15:50:20.458Z,3.40
2019-01-17T15:52:48.994Z,3.40
2019-01-17T15:55:18.293Z,3.40
2019-01-17T15:57:46.825Z,3.40
2019-01-17T16:00:21.395Z,3.40
2019-01-17T16:02:49.937Z,3.40
2019-01-17T16:05:18.588Z,3.40
2019-01-17T16:07:47.053Z,3.30
2019-01-17T16:10:16.648Z,3.30
2019-01-17T16:12:45.118Z,3.30
2019-01-17T16:15:16.216Z,3.30
2019-01-17T16:17:44.753Z,3.40
2019-01-17T16:20:17.406Z,3.30
2019-01-17T16:22:46.147Z,3.20
2019-01-17T16:25:15.534Z,3.20
2019-01-17T16:27:44.203Z,3.10
2019-01-17T16:30:23.972Z,3.00
2019-01-17T16:32:52.507Z,2.90
2019-01-17T16:35:21.065Z,2.70
2019-01-17T16:37:49.602Z,2.60
2019-01-17T16:40:18.269Z,2.50
2019-01-17T16:42:46.811Z,2.50
2019-01-17T16:45:20.846Z,2.50
2019-01-17T16:47:49.426Z,2.40
2019-01-17T16:50:19.997Z,2.40
2019-01-17T16:52:48.727Z,2.40
2019-01-17T16:55:17.433Z,2.30
2019-01-17T16:57:49.153Z,2.30
2019-01-17T17:00:24.719Z,2.30
2019-01-17T17:02:53.282Z,2.20
2019-01-17T17:05:21.957Z,2.20
2019-01-17T17:07:50.540Z,2.20
2019-01-17T17:10:19.127Z,2.20
2019-01-17T17:12:47.690Z,2.20
2019-01-17T17:15:16.407Z,2.20
2019-01-17T17:17:44.961Z,2.20
2019-01-17T17:20:16.802Z,2.20
2019-01-17T17:22:45.366Z,2.20
2019-01-17T17:25:13.983Z,2.20
2019-01-17T17:27:42.606Z,2.20
2019-01-17T17:30:16.777Z,2.20
2019-01-17T17:32:45.405Z,2.10
2019-01-17T17:35:13.996Z,2.00
2019-01-17T17:37:42.481Z,1.90
2019-01-17T17:40:14.159Z,1.80
2019-01-17T17:42:42.713Z,1.80
2019-01-17T17:45:12.223Z,1.80
2019-01-17T17:47:40.773Z,1.80
2019-01-17T17:50:12.890Z,1.80
2019-01-17T17:52:41.520Z,1.80
2019-01-17T17:55:14.925Z,1.80
2019-01-17T17:57:43.486Z,1.80
2019-01-17T18:00:19.489Z,1.80
2019-01-17T18:02:48.354Z,1.80
2019-01-17T18:05:16.886Z,1.80
2019-01-17T18:07:45.447Z,1.80
2019-01-17T18:10:16.221Z,1.80
2019-01-17T18:12:44.777Z,1.80
2019-01-17T18:15:15.556Z,1.80
2019-01-17T18:17:44.353Z,1.80
2019-01-17T18:20:14.773Z,1.80
2019-01-17T18:22:43.340Z,1.80
2019-01-17T18:25:12.404Z,1.80
2019-01-17T18:27:41.010Z,1.80
2019-01-17T18:30:17.979Z,1.80
2019-01-17T18:32:46.529Z,1.80
2019-01-17T18:35:15.162Z,1.80
2019-01-17T18:37:43.795Z,1.80
2019-01-17T18:40:14.873Z,1.80
2019-01-17T18:42:43.506Z,1.80
2019-01-17T18:45:17.200Z,1.80
2019-01-17T18:47:45.754Z,1.80
2019-01-17T18:50:22.981Z,1.80
2019-01-17T18:52:51.475Z,1.90
2019-01-17T18:55:20.010Z,1.90
2019-01-17T18:57:48.569Z,1.90
2019-01-17T19:00:26.613Z,1.90
2019-01-17T19:02:55.433Z,1.90
2019-01-17T19:05:24.214Z,1.90
2019-01-17T19:07:53.017Z,1.90
2019-01-17T19:10:21.994Z,1.90
2019-01-17T19:12:50.693Z,1.90
2019-01-17T19:15:24.589Z,2.00
2019-01-17T19:17:53.150Z,2.00
2019-01-17T19:20:21.901Z,2.00
2019-01-17T19:22:50.540Z,2.00
2019-01-17T19:25:19.302Z,2.00
2019-01-17T19:27:47.937Z,2.00
2019-01-17T19:30:21.862Z,1.90
2019-01-17T19:32:50.567Z,1.90
2019-01-17T19:35:19.169Z,1.90
2019-01-17T19:37:47.726Z,1.90
2019-01-17T19:40:21.416Z,2.00
2019-01-17T19:42:49.980Z,2.00
2019-01-17T19:45:18.707Z,2.00
2019-01-17T19:47:47.337Z,2.00
2019-01-17T19:50:24.585Z,2.00
2019-01-17T19:52:53.138Z,2.00
2019-01-17T19:55:21.685Z,2.10
2019-01-17T19:57:50.245Z,2.10
2019-01-17T20:00:24.522Z,2.10
2019-01-17T20:02:53.174Z,2.10
2019-01-17T20:05:24.570Z,2.10
2019-01-17T20:07:53.370Z,2.10
2019-01-17T20:10:24.808Z,2.10
2019-01-17T20:12:53.474Z,2.10
2019-01-17T20:15:21.981Z,2.10
2019-01-17T20:17:50.615Z,2.10
2019-01-17T20:20:19.490Z,2.10
2019-01-17T20:22:49.003Z,2.10
2019-01-17T20:25:17.674Z,2.10
2019-01-17T20:27:46.302Z,2.10
2019-01-17T20:30:26.643Z,2.10
2019-01-17T20:32:56.542Z,2.00
2019-01-17T20:35:25.069Z,2.00
2019-01-17T20:37:53.553Z,2.00
2019-01-17T20:40:24.129Z,1.90
2019-01-17T20:42:52.827Z,1.90
2019-01-17T20:45:21.709Z,1.90
2019-01-17T20:47:50.274Z,1.80
2019-01-17T20:50:30.227Z,1.80
2019-01-17T20:52:58.862Z,1.80
2019-01-17T20:55:27.565Z,1.70
2019-01-17T20:57:56.121Z,1.70
2019-01-17T21:00:28.065Z,1.70
2019-01-17T21:02:56.626Z,1.70
2019-01-17T21:05:26.102Z,1.70
2019-01-17T21:07:54.725Z,1.60
2019-01-17T21:10:23.321Z,1.60
2019-01-17T21:12:51.809Z,1.60
2019-01-17T21:15:20.342Z,1.60
2019-01-17T21:17:48.902Z,1.60
2019-01-17T21:20:18.705Z,1.60
2019-01-17T21:22:47.488Z,1.60
2019-01-17T21:25:21.888Z,1.60
2019-01-17T21:27:51.333Z,1.60
2019-01-17T21:30:27.785Z,1.60
2019-01-17T21:32:56.964Z,1.60
2019-01-17T21:35:26.102Z,1.60
2019-01-17T21:37:54.794Z,1.60
2019-01-17T21:40:24.965Z,1.50
2019-01-17T21:42:53.565Z,1.50
2019-01-17T21:45:22.034Z,1.50
2019-01-17T21:47:50.672Z,1.50
2019-01-17T21:50:24.618Z,1.50
2019-01-17T21:52:53.184Z,1.50
2019-01-17T21:55:21.717Z,1.50
2019-01-17T21:57:50.269Z,1.50
2019-01-17T22:00:21.206Z,1.50
2019-01-17T22:02:49.694Z,1.50
2019-01-17T22:05:18.223Z,1.50
2019-01-17T22:07:46.790Z,1.40
2019-01-17T22:10:16.665Z,1.40
2019-01-17T22:12:45.230Z,1.40
2019-01-17T22:15:19.758Z,1.40
2019-01-17T22:17:48.394Z,1.40
2019-01-17T22:20:18.057Z,1.40
2019-01-17T22:22:46.659Z,1.40
2019-01-17T22:25:17.288Z,1.40
2019-01-17T22:27:46.461Z,1.40
2019-01-17T22:30:23.098Z,1.40
2019-01-17T22:32:51.634Z,1.30
2019-01-17T22:35:20.266Z,1.30
2019-01-17T22:37:49.174Z,1.30
2019-01-17T22:40:18.002Z,1.40
2019-01-17T22:42:46.542Z,1.40
2019-01-17T22:45:20.654Z,1.40
2019-01-17T22:47:49.189Z,1.40
2019-01-17T22:50:19.182Z,1.40
2019-01-17T22:52:48.961Z,1.40
2019-01-17T22:55:17.524Z,1.40
2019-01-17T22:57:46.065Z,1.40
2019-01-17T23:00:23.378Z,1.40
2019-01-17T23:02:51.910Z,1.50
2019-01-17T23:05:20.470Z,1.50
2019-01-17T23:07:49.000Z,1.50
2019-01-17T23:10:17.654Z,1.50
2019-01-17T23:12:46.193Z,1.50
2019-01-17T23:15:14.750Z,1.50
2019-01-17T23:17:43.341Z,1.50
2019-01-17T23:20:12.018Z,1.50
2019-01-17T23:22:40.552Z,1.50
2019-01-17T23:25:09.375Z,1.50
2019-01-17T23:27:38.202Z,1.50
2019-01-17T23:30:09.890Z,1.60
2019-01-17T23:32:38.434Z,1.60
2019-01-17T23:35:08.429Z,1.50
2019-01-17T23:37:37.009Z,1.50
2019-01-17T23:40:10.805Z,1.50
2019-01-17T23:42:39.338Z,1.50
2019-01-17T23:45:10.618Z,1.60
2019-01-17T23:47:39.160Z,1.50
2019-01-17T23:50:10.154Z,1.50
2019-01-17T23:52:38.837Z,1.40
2019-01-17T23:55:08.332Z,1.40
2019-01-17T23:57:36.965Z,1.40
